createdAt,value
2023-05-18T00:02:24.191Z,102630.22
2023-05-18T00:04:53.556Z,102635.91
2023-05-18T00:07:21.540Z,102632.34
2023-05-18T00:09:49.752Z,102638.59
2023-05-18T00:12:17.563Z,102637.59
2023-05-18T00:14:45.703Z,102634.19
2023-05-18T00:17:14.828Z,102629.97
2023-05-18T00:19:42.851Z,102638.03
2023-05-18T00:22:18.817Z,102644.56
2023-05-18T00:24:47.180Z,102640.13
2023-05-18T00:27:16.253Z,102640.28
2023-05-18T00:29:44.087Z,102635.63
2023-05-18T00:32:13.445Z,102635.13
2023-05-18T00:34:41.373Z,102640.28
2023-05-18T00:37:09.150Z,102636.72
2023-05-18T00:39:38.366Z,102641.13
2023-05-18T00:42:06.651Z,102638.56
2023-05-18T00:44:34.391Z,102635.97
2023-05-18T00:47:02.302Z,102634.28
2023-05-18T00:49:31.028Z,102635.09
2023-05-18T00:51:58.858Z,102632.53
2023-05-18T00:54:27.307Z,102630.66
2023-05-18T00:56:56.959Z,102633.09
2023-05-18T00:59:24.735Z,102631.53
2023-05-18T01:01:54.014Z,102626.38
2023-05-18T01:04:21.898Z,102629.81
2023-05-18T01:06:49.976Z,102634.09
2023-05-18T01:09:17.859Z,102628.91
2023-05-18T01:11:57.364Z,102624.78
2023-05-18T01:14:34.661Z,102638.13
2023-05-18T01:17:11.709Z,102636.53
2023-05-18T01:20:01.293Z,102636.66
2023-05-18T01:22:44.756Z,102639.28
2023-05-18T01:25:23.695Z,102634.94
2023-05-18T01:27:56.173Z,102633.38
2023-05-18T01:30:24.871Z,102632.53
2023-05-18T01:32:52.677Z,102636.13
2023-05-18T01:35:20.516Z,102635.06
2023-05-18T01:37:48.573Z,102635.97
2023-05-18T01:40:16.417Z,102636.09
2023-05-18T01:42:49.890Z,102635.25
2023-05-18T01:45:27.668Z,102624.78
2023-05-18T01:48:00.217Z,102622.91
2023-05-18T01:50:37.919Z,102621.97
2023-05-18T01:53:13.921Z,102626.53
2023-05-18T01:55:43.571Z,102623.97
2023-05-18T01:58:13.463Z,102617.56
2023-05-18T02:00:43.329Z,102616.09
2023-05-18T02:03:13.196Z,102620.53
2023-05-18T02:05:41.264Z,102613.34
2023-05-18T02:08:09.411Z,102617.00
2023-05-18T02:10:37.304Z,102618.72
2023-05-18T02:13:07.803Z,102619.53
2023-05-18T02:15:36.755Z,102615.22
2023-05-18T02:18:08.329Z,102622.44
2023-05-18T02:20:37.908Z,102616.09
2023-05-18T02:23:05.655Z,102624.13
2023-05-18T02:25:33.542Z,102625.25
2023-05-18T02:28:01.378Z,102614.53
2023-05-18T02:30:29.885Z,102619.75
2023-05-18T02:32:57.678Z,102616.38
2023-05-18T02:35:30.127Z,102615.31
2023-05-18T02:37:58.477Z,102615.47
2023-05-18T02:40:26.441Z,102616.41
2023-05-18T02:42:54.209Z,102617.28
2023-05-18T02:45:23.217Z,102611.91
2023-05-18T02:47:51.645Z,102622.75
2023-05-18T02:50:19.581Z,102619.22
2023-05-18T02:52:50.124Z,102612.91
2023-05-18T02:55:18.926Z,102618.28
2023-05-18T02:58:09.627Z,102622.09
2023-05-18T03:00:56.193Z,102620.97
2023-05-18T03:03:25.810Z,102619.13
2023-05-18T03:05:54.991Z,102626.41
2023-05-18T03:08:26.688Z,102624.50
2023-05-18T03:10:54.594Z,102628.13
2023-05-18T03:13:22.564Z,102623.72
2023-05-18T03:15:51.197Z,102610.22
2023-05-18T03:18:19.014Z,102616.53
2023-05-18T03:20:47.359Z,102623.72
2023-05-18T03:23:15.370Z,102626.41
2023-05-18T03:25:46.121Z,102627.44
2023-05-18T03:28:13.883Z,102627.41
2023-05-18T03:30:42.136Z,102622.00
2023-05-18T03:33:09.907Z,102616.75
2023-05-18T03:35:37.783Z,102625.56
2023-05-18T03:38:05.616Z,102622.16
2023-05-18T03:40:34.149Z,102616.72
2023-05-18T03:43:03.221Z,102620.25
2023-05-18T03:45:31.579Z,102610.59
2023-05-18T03:47:59.881Z,102611.41
2023-05-18T03:50:29.381Z,102618.56
2023-05-18T03:52:59.161Z,102610.56
2023-05-18T03:55:26.941Z,102619.50
2023-05-18T03:57:55.184Z,102617.63
2023-05-18T04:00:24.636Z,102621.31
2023-05-18T04:02:52.799Z,102619.50
2023-05-18T04:05:24.650Z,102617.50
2023-05-18T04:07:52.356Z,102624.94
2023-05-18T04:10:22.167Z,102623.91
2023-05-18T04:12:50.575Z,102625.56
2023-05-18T04:15:18.249Z,102623.13
2023-05-18T04:17:47.555Z,102621.22
2023-05-18T04:20:15.596Z,102629.34
2023-05-18T04:22:46.721Z,102630.09
2023-05-18T04:25:14.983Z,102628.00
2023-05-18T04:27:45.353Z,102637.16
2023-05-18T04:30:14.518Z,102637.03
2023-05-18T04:32:44.033Z,102639.88
2023-05-18T04:35:13.466Z,102638.66
2023-05-18T04:37:42.887Z,102639.16
2023-05-18T04:40:17.223Z,102651.25
2023-05-18T04:42:48.269Z,102649.25
2023-05-18T04:45:26.138Z,102658.31
2023-05-18T04:47:58.814Z,102661.91
2023-05-18T04:50:28.136Z,102667.47
2023-05-18T04:52:57.907Z,102653.59
2023-05-18T04:55:27.942Z,102661.81
2023-05-18T04:58:00.398Z,102659.94
2023-05-18T05:00:30.175Z,102664.13
2023-05-18T05:02:59.899Z,102662.41
2023-05-18T05:05:31.178Z,102665.44
2023-05-18T05:07:59.095Z,102664.66
2023-05-18T05:10:28.057Z,102658.91
2023-05-18T05:12:55.947Z,102659.75
2023-05-18T05:15:24.033Z,102662.25
2023-05-18T05:17:53.256Z,102663.06
2023-05-18T05:20:21.261Z,102663.03
2023-05-18T05:22:50.562Z,102669.81
2023-05-18T05:25:24.054Z,102668.34
2023-05-18T05:27:52.864Z,102671.94
2023-05-18T05:30:22.399Z,102666.84
2023-05-18T05:32:50.296Z,102662.78
2023-05-18T05:35:18.221Z,102666.09
2023-05-18T05:37:46.931Z,102672.41
2023-05-18T05:40:17.080Z,102673.88
2023-05-18T05:42:47.431Z,102662.31
2023-05-18T05:45:15.424Z,102660.16
2023-05-18T05:47:50.827Z,102666.81
2023-05-18T05:50:20.777Z,102667.00
2023-05-18T05:52:50.470Z,102672.84
2023-05-18T05:55:20.981Z,102669.91
2023-05-18T05:57:49.131Z,102678.69
2023-05-18T06:00:17.779Z,102672.53
2023-05-18T06:02:49.282Z,102673.50
2023-05-18T06:05:23.909Z,102682.09
2023-05-18T06:07:52.962Z,102675.78
2023-05-18T06:10:22.198Z,102678.31
2023-05-18T06:12:50.559Z,102686.47
2023-05-18T06:15:19.993Z,102685.53
2023-05-18T06:17:47.889Z,102687.84
2023-05-18T06:20:16.468Z,102682.50
2023-05-18T06:22:44.768Z,102686.53
2023-05-18T06:25:40.702Z,102684.91
2023-05-18T06:28:40.985Z,102684.00
2023-05-18T06:31:35.365Z,102688.44
2023-05-18T06:34:10.495Z,102702.38
2023-05-18T06:36:38.973Z,102693.31
2023-05-18T06:39:07.149Z,102692.84
2023-05-18T06:41:36.533Z,102699.91
2023-05-18T06:44:04.430Z,102695.59
2023-05-18T06:46:37.261Z,102698.13
2023-05-18T06:49:24.536Z,102697.78
2023-05-18T06:51:52.484Z,102690.81
2023-05-18T06:54:20.386Z,102697.91
2023-05-18T06:56:50.723Z,102696.09
2023-05-18T06:59:18.894Z,102701.88
2023-05-18T07:01:46.929Z,102703.72
2023-05-18T07:04:19.664Z,102696.69
2023-05-18T07:06:47.607Z,102699.16
2023-05-18T07:09:16.503Z,102697.66
2023-05-18T07:11:45.388Z,102698.00
2023-05-18T07:14:14.834Z,102704.25
2023-05-18T07:16:44.021Z,102702.44
2023-05-18T07:19:11.972Z,102703.59
2023-05-18T07:21:40.269Z,102695.13
2023-05-18T07:24:08.344Z,102696.56
2023-05-18T07:26:36.152Z,102698.19
2023-05-18T07:29:03.893Z,102704.94
2023-05-18T07:31:33.902Z,102701.09
2023-05-18T07:34:01.878Z,102698.97
2023-05-18T07:36:29.631Z,102708.59
2023-05-18T07:38:59.121Z,102705.41
2023-05-18T07:41:28.070Z,102700.56
2023-05-18T07:43:56.047Z,102710.91
2023-05-18T07:46:24.173Z,102703.66
2023-05-18T07:48:53.307Z,102703.78
2023-05-18T07:51:21.265Z,102699.03
2023-05-18T07:53:50.769Z,102704.06
2023-05-18T07:56:18.493Z,102708.47
2023-05-18T07:58:46.365Z,102704.59
2023-05-18T08:01:17.715Z,102699.31
2023-05-18T08:03:45.556Z,102705.28
2023-05-18T08:06:14.753Z,102701.69
2023-05-18T08:08:42.539Z,102701.06
2023-05-18T08:11:10.360Z,102703.69
2023-05-18T08:13:38.222Z,102699.78
2023-05-18T08:16:11.788Z,102686.19
2023-05-18T08:18:40.776Z,102688.63
2023-05-18T08:21:09.929Z,102688.97
2023-05-18T08:23:40.733Z,102694.03
2023-05-18T08:26:10.498Z,102682.47
2023-05-18T08:28:40.002Z,102678.59
2023-05-18T08:31:07.906Z,102685.06
2023-05-18T08:33:35.792Z,102676.56
2023-05-18T08:36:03.674Z,102679.75
2023-05-18T08:38:32.005Z,102677.09
2023-05-18T08:41:06.989Z,102679.28
2023-05-18T08:43:39.215Z,102669.00
2023-05-18T08:46:12.392Z,102673.66
2023-05-18T08:48:41.691Z,102679.06
2023-05-18T08:51:10.509Z,102669.50
2023-05-18T08:53:40.521Z,102676.19
2023-05-18T08:56:11.694Z,102673.22
2023-05-18T08:58:48.252Z,102667.41
2023-05-18T09:01:16.033Z,102671.91
2023-05-18T09:03:45.280Z,102661.81
2023-05-18T09:06:13.376Z,102661.06
2023-05-18T09:08:41.937Z,102674.72
2023-05-18T09:11:12.897Z,102669.38
2023-05-18T09:13:41.774Z,102661.25
2023-05-18T09:16:09.757Z,102661.50
2023-05-18T09:18:37.650Z,102661.78
2023-05-18T09:21:05.744Z,102653.72
2023-05-18T09:23:34.345Z,102657.38
2023-05-18T09:26:04.720Z,102650.19
2023-05-18T09:28:36.951Z,102651.88
2023-05-18T09:31:05.449Z,102647.69
2023-05-18T09:33:35.383Z,102654.66
2023-05-18T09:36:05.102Z,102652.41
2023-05-18T09:38:36.854Z,102666.06
2023-05-18T09:41:04.983Z,102657.91
2023-05-18T09:43:36.721Z,102650.19
2023-05-18T09:46:08.125Z,102656.09
2023-05-18T09:48:37.677Z,102655.53
2023-05-18T09:51:06.788Z,102651.09
2023-05-18T09:53:37.356Z,102656.66
2023-05-18T09:56:11.750Z,102651.09
2023-05-18T09:58:41.186Z,102657.22
2023-05-18T10:01:08.982Z,102656.66
2023-05-18T10:03:38.891Z,102658.78
2023-05-18T10:06:08.331Z,102656.03
2023-05-18T10:08:37.479Z,102652.47
2023-05-18T10:11:06.117Z,102653.34
2023-05-18T10:13:35.151Z,102654.34
2023-05-18T10:16:06.289Z,102655.44
2023-05-18T10:18:36.448Z,102643.13
2023-05-18T10:21:05.854Z,102639.16
2023-05-18T10:23:35.664Z,102631.84
2023-05-18T10:26:07.722Z,102639.25
2023-05-18T10:28:42.315Z,102631.13
2023-05-18T10:31:12.244Z,102630.13
2023-05-18T10:33:40.217Z,102623.44
2023-05-18T10:36:10.116Z,102626.38
2023-05-18T10:38:40.484Z,102622.72
2023-05-18T10:41:10.898Z,102609.31
2023-05-18T10:43:38.803Z,102611.81
2023-05-18T10:46:08.518Z,102613.25
2023-05-18T10:48:40.116Z,102608.19
2023-05-18T10:51:09.013Z,102605.44
2023-05-18T10:53:37.542Z,102615.41
2023-05-18T10:56:05.690Z,102614.28
2023-05-18T10:58:34.378Z,102612.13
2023-05-18T11:01:06.303Z,102598.47
2023-05-18T11:03:34.525Z,102607.81
2023-05-18T11:06:10.258Z,102603.63
2023-05-18T11:08:44.792Z,102601.09
2023-05-18T11:11:12.571Z,102602.78
2023-05-18T11:13:45.899Z,102594.94
2023-05-18T11:16:13.943Z,102597.97
2023-05-18T11:18:44.703Z,102596.00
2023-05-18T11:21:32.005Z,102593.69
2023-05-18T11:24:32.820Z,102602.91
2023-05-18T11:27:03.493Z,102600.72
2023-05-18T11:29:33.367Z,102591.88
2023-05-18T11:32:01.504Z,102597.81
2023-05-18T11:34:45.990Z,102581.53
2023-05-18T11:37:17.128Z,102592.69
2023-05-18T11:39:59.660Z,102592.78
2023-05-18T11:42:34.892Z,102579.41
2023-05-18T11:45:08.017Z,102585.78
2023-05-18T11:47:37.978Z,102581.25
2023-05-18T11:50:08.579Z,102565.03
2023-05-18T11:52:47.197Z,102565.84
2023-05-18T11:55:16.307Z,102569.63
2023-05-18T11:57:45.961Z,102559.94
2023-05-18T12:00:15.635Z,102554.50
2023-05-18T12:02:44.567Z,102558.13
2023-05-18T12:05:12.739Z,102549.97
2023-05-18T12:07:41.631Z,102545.75
2023-05-18T12:10:14.558Z,102545.16
2023-05-18T12:12:42.930Z,102536.00
2023-05-18T12:15:16.572Z,102540.41
2023-05-18T12:17:46.748Z,102538.81
2023-05-18T12:20:16.589Z,102538.47
2023-05-18T12:22:45.896Z,102540.78
2023-05-18T12:25:15.442Z,102538.72
2023-05-18T12:27:48.035Z,102540.53
2023-05-18T12:30:19.248Z,102527.84
2023-05-18T12:32:48.353Z,102524.97
2023-05-18T12:35:16.522Z,102528.06
2023-05-18T12:37:45.844Z,102537.00
2023-05-18T12:40:19.761Z,102521.47
2023-05-18T12:42:54.544Z,102527.28
2023-05-18T12:45:24.436Z,102539.09
2023-05-18T12:47:54.764Z,102528.38
2023-05-18T12:50:23.275Z,102517.03
2023-05-18T12:52:51.377Z,102518.09
2023-05-18T12:55:22.632Z,102522.75
2023-05-18T12:58:01.799Z,102518.16
2023-05-18T13:00:33.628Z,102524.53
2023-05-18T13:03:07.028Z,102516.69
2023-05-18T13:05:35.284Z,102498.63
2023-05-18T13:08:03.252Z,102512.47
2023-05-18T13:10:33.968Z,102512.78
2023-05-18T13:13:03.729Z,102495.38
2023-05-18T13:15:34.954Z,102495.72
2023-05-18T13:18:04.360Z,102488.84
2023-05-18T13:20:36.195Z,102492.31
2023-05-18T13:23:06.635Z,102503.28
2023-05-18T13:25:36.174Z,102487.91
2023-05-18T13:28:04.615Z,102493.44
2023-05-18T13:30:32.852Z,102494.53
2023-05-18T13:33:01.418Z,102500.03
2023-05-18T13:35:29.372Z,102490.56
2023-05-18T13:37:57.390Z,102484.59
2023-05-18T13:40:25.779Z,102472.31
2023-05-18T13:42:55.285Z,102471.56
2023-05-18T13:45:23.438Z,102472.59
2023-05-18T13:47:56.797Z,102463.00
2023-05-18T13:50:26.119Z,102462.84
2023-05-18T13:52:54.045Z,102462.06
2023-05-18T13:55:22.094Z,102460.22
2023-05-18T13:57:50.484Z,102464.63
2023-05-18T14:00:21.406Z,102449.13
2023-05-18T14:02:49.405Z,102448.06
2023-05-18T14:05:17.328Z,102457.72
2023-05-18T14:07:45.687Z,102444.19
2023-05-18T14:10:14.438Z,102447.38
2023-05-18T14:12:43.393Z,102460.63
2023-05-18T14:15:13.597Z,102448.63
2023-05-18T14:17:43.491Z,102446.13
2023-05-18T14:20:13.073Z,102442.63
2023-05-18T14:22:41.283Z,102449.84
2023-05-18T14:25:09.694Z,102449.44
2023-05-18T14:27:37.970Z,102441.53
2023-05-18T14:30:07.924Z,102435.44
2023-05-18T14:32:35.838Z,102420.16
2023-05-18T14:35:05.770Z,102419.50
2023-05-18T14:37:34.076Z,102428.84
2023-05-18T14:40:02.017Z,102431.22
2023-05-18T14:42:30.051Z,102425.50
2023-05-18T14:44:57.903Z,102419.94
2023-05-18T14:47:25.847Z,102422.59
2023-05-18T14:50:45.009Z,102430.72
2023-05-18T14:53:17.300Z,102432.91
2023-05-18T14:55:45.034Z,102427.34
2023-05-18T14:58:14.836Z,102436.84
2023-05-18T15:00:42.720Z,102424.53
2023-05-18T15:03:10.731Z,102419.81
2023-05-18T15:05:38.751Z,102413.66
2023-05-18T15:08:06.960Z,102423.13
2023-05-18T15:10:37.111Z,102431.75
2023-05-18T15:13:04.881Z,102426.91
2023-05-18T15:15:33.202Z,102426.81
2023-05-18T15:18:01.082Z,102423.50
2023-05-18T15:20:29.261Z,102437.19
2023-05-18T15:22:57.395Z,102428.75
2023-05-18T15:25:25.401Z,102432.47
2023-05-18T15:27:54.937Z,102434.56
2023-05-18T15:30:22.948Z,102426.59
2023-05-18T15:32:51.290Z,102431.09
2023-05-18T15:35:19.140Z,102430.72
2023-05-18T15:37:46.925Z,102420.88
2023-05-18T15:40:14.672Z,102421.19
2023-05-18T15:42:42.732Z,102419.91
2023-05-18T15:45:13.395Z,102410.84
2023-05-18T15:47:42.504Z,102415.66
2023-05-18T15:50:10.772Z,102421.03
2023-05-18T15:52:38.634Z,102416.91
2023-05-18T15:55:07.564Z,102417.19
2023-05-18T15:57:35.348Z,102411.16
2023-05-18T16:00:03.450Z,102412.09
2023-05-18T16:02:41.294Z,102408.03
2023-05-18T16:05:09.820Z,102413.31
2023-05-18T16:07:41.081Z,102399.78
2023-05-18T16:10:09.908Z,102394.00
2023-05-18T16:12:37.971Z,102399.78
2023-05-18T16:15:06.822Z,102400.66
2023-05-18T16:17:34.812Z,102403.41
2023-05-18T16:20:04.511Z,102385.44
2023-05-18T16:22:32.367Z,102402.56
2023-05-18T16:25:00.617Z,102398.44
2023-05-18T16:27:28.446Z,102388.50
2023-05-18T16:29:56.520Z,102392.06
2023-05-18T16:32:27.655Z,102385.19
2023-05-18T16:34:55.672Z,102388.97
2023-05-18T16:37:24.871Z,102387.97
2023-05-18T16:39:52.952Z,102385.25
2023-05-18T16:42:22.293Z,102389.47
2023-05-18T16:44:50.250Z,102398.41
2023-05-18T16:47:18.083Z,102396.44
2023-05-18T16:49:45.884Z,102388.47
2023-05-18T16:52:15.631Z,102394.91
2023-05-18T16:54:45.049Z,102401.22
2023-05-18T16:57:13.577Z,102396.72
2023-05-18T16:59:41.650Z,102394.78
2023-05-18T17:02:13.513Z,102401.56
2023-05-18T17:04:42.753Z,102398.38
2023-05-18T17:07:11.601Z,102391.53
2023-05-18T17:09:41.471Z,102380.16
2023-05-18T17:12:11.571Z,102384.88
2023-05-18T17:14:39.887Z,102373.00
2023-05-18T17:17:08.491Z,102382.94
2023-05-18T17:19:36.939Z,102374.84
2023-05-18T17:22:06.010Z,102379.75
2023-05-18T17:24:33.891Z,102388.03
2023-05-18T17:27:01.748Z,102371.38
2023-05-18T17:29:31.304Z,102370.66
2023-05-18T17:31:59.267Z,102375.03
2023-05-18T17:34:27.710Z,102369.22
2023-05-18T17:36:56.255Z,102377.38
2023-05-18T17:39:24.277Z,102369.84
2023-05-18T17:41:54.056Z,102371.50
2023-05-18T17:44:21.887Z,102373.63
2023-05-18T17:46:51.449Z,102371.41
2023-05-18T17:49:19.768Z,102370.00
2023-05-18T17:51:47.565Z,102371.53
2023-05-18T17:54:15.557Z,102378.78
2023-05-18T17:56:43.464Z,102381.25
2023-05-18T17:59:11.153Z,102383.09
2023-05-18T18:01:39.450Z,102381.50
2023-05-18T18:04:08.697Z,102383.59
2023-05-18T18:06:36.771Z,102379.94
2023-05-18T18:09:05.608Z,102385.03
2023-05-18T18:11:33.459Z,102381.22
2023-05-18T18:14:02.188Z,102380.28
2023-05-18T18:16:29.999Z,102386.75
2023-05-18T18:18:58.250Z,102376.47
2023-05-18T18:21:27.513Z,102381.97
2023-05-18T18:23:55.214Z,102383.69
2023-05-18T18:26:23.113Z,102374.94
2023-05-18T18:28:51.166Z,102386.56
2023-05-18T18:31:20.742Z,102391.25
2023-05-18T18:33:50.303Z,102388.63
2023-05-18T18:36:18.321Z,102389.53
2023-05-18T18:38:47.558Z,102396.59
2023-05-18T18:41:17.297Z,102404.66
2023-05-18T18:43:45.686Z,102396.81
2023-05-18T18:46:13.683Z,102395.72
2023-05-18T18:48:41.765Z,102397.25
2023-05-18T18:51:09.578Z,102399.13
2023-05-18T18:53:37.874Z,102394.59
2023-05-18T18:56:07.316Z,102399.38
2023-05-18T18:58:35.088Z,102393.63
2023-05-18T19:01:03.201Z,102397.63
2023-05-18T19:03:33.000Z,102400.56
2023-05-18T19:06:00.983Z,102407.66
2023-05-18T19:08:28.834Z,102396.50
2023-05-18T19:10:56.779Z,102406.22
2023-05-18T19:13:26.057Z,102412.19
2023-05-18T19:15:53.951Z,102404.88
2023-05-18T19:18:21.840Z,102417.19
2023-05-18T19:20:49.672Z,102415.59
2023-05-18T19:23:17.591Z,102420.00
2023-05-18T19:25:45.405Z,102421.25
2023-05-18T19:28:13.308Z,102422.00
2023-05-18T19:30:42.585Z,102417.00
2023-05-18T19:33:10.369Z,102425.44
2023-05-18T19:35:38.178Z,102426.16
2023-05-18T19:38:05.945Z,102428.38
2023-05-18T19:40:33.971Z,102432.91
2023-05-18T19:43:01.793Z,102441.44
2023-05-18T19:45:29.862Z,102441.53
2023-05-18T19:47:59.649Z,102435.72
2023-05-18T19:50:27.490Z,102445.03
2023-05-18T19:52:55.634Z,102437.94
2023-05-18T19:55:23.444Z,102453.19
2023-05-18T19:57:51.326Z,102449.78
2023-05-18T20:00:19.647Z,102450.38
2023-05-18T20:02:47.442Z,102450.22
2023-05-18T20:05:18.745Z,102461.53
2023-05-18T20:07:46.907Z,102459.03
2023-05-18T20:10:14.746Z,102462.47
2023-05-18T20:12:42.615Z,102457.50
2023-05-18T20:15:10.833Z,102462.53
2023-05-18T20:17:38.840Z,102468.63
2023-05-18T20:20:08.084Z,102471.47
2023-05-18T20:22:38.530Z,102461.38
2023-05-18T20:25:07.695Z,102467.75
2023-05-18T20:27:35.557Z,102467.94
2023-05-18T20:30:03.420Z,102469.13
2023-05-18T20:32:32.621Z,102469.31
2023-05-18T20:35:00.494Z,102466.97
2023-05-18T20:37:28.815Z,102470.88
2023-05-18T20:39:58.099Z,102477.19
2023-05-18T20:42:31.818Z,102477.25
2023-05-18T20:44:59.624Z,102479.75
2023-05-18T20:47:29.860Z,102482.19
2023-05-18T20:49:58.599Z,102479.50
2023-05-18T20:52:26.468Z,102486.69
2023-05-18T20:54:54.214Z,102484.16
2023-05-18T20:57:24.055Z,102483.28
2023-05-18T20:59:52.384Z,102490.88
2023-05-18T21:02:20.400Z,102490.72
2023-05-18T21:04:48.402Z,102487.38
2023-05-18T21:07:18.040Z,102496.03
2023-05-18T21:09:45.947Z,102495.03
2023-05-18T21:12:13.718Z,102497.19
2023-05-18T21:14:42.912Z,102493.41
2023-05-18T21:17:10.696Z,102495.22
2023-05-18T21:19:38.439Z,102494.53
2023-05-18T21:22:06.349Z,102492.63
2023-05-18T21:24:34.334Z,102496.56
2023-05-18T21:27:02.118Z,102497.50
2023-05-18T21:29:29.907Z,102501.44
2023-05-18T21:31:59.266Z,102500.59
2023-05-18T21:34:27.185Z,102498.75
2023-05-18T21:36:55.216Z,102503.53
2023-05-18T21:39:23.064Z,102502.50
2023-05-18T21:41:50.806Z,102498.81
2023-05-18T21:44:18.568Z,102498.81
2023-05-18T21:46:46.610Z,102502.59
2023-05-18T21:49:15.908Z,102503.31
2023-05-18T21:51:43.665Z,102497.69
2023-05-18T21:54:11.369Z,102495.91
2023-05-18T21:56:39.184Z,102495.81
2023-05-18T21:59:06.934Z,102502.47
2023-05-18T22:01:35.102Z,102495.25
2023-05-18T22:04:03.148Z,102507.25
2023-05-18T22:06:32.316Z,102508.56
2023-05-18T22:09:00.079Z,102501.47
2023-05-18T22:11:27.913Z,102498.16
2023-05-18T22:13:55.863Z,102504.53
2023-05-18T22:16:24.314Z,102495.81
2023-05-18T22:18:52.171Z,102503.94
2023-05-18T22:21:20.120Z,102498.53
2023-05-18T22:23:51.532Z,102499.59
2023-05-18T22:26:20.143Z,102497.97
2023-05-18T22:28:48.048Z,102497.91
2023-05-18T22:31:15.867Z,102493.34
2023-05-18T22:33:43.893Z,102490.53
2023-05-18T22:36:11.855Z,102496.28
2023-05-18T22:38:43.135Z,102496.88
2023-05-18T22:41:12.469Z,102494.94
2023-05-18T22:43:40.437Z,102494.03
2023-05-18T22:46:08.461Z,102493.34
2023-05-18T22:48:36.336Z,102496.16
2023-05-18T22:51:05.976Z,102497.22
2023-05-18T22:53:33.773Z,102494.59
2023-05-18T22:56:01.603Z,102493.22
2023-05-18T22:58:31.007Z,102494.22
2023-05-18T23:00:58.955Z,102502.31
2023-05-18T23:03:26.944Z,102506.09
2023-05-18T23:05:54.813Z,102496.47
2023-05-18T23:08:23.846Z,102508.13
2023-05-18T23:10:51.919Z,102501.91
2023-05-18T23:13:19.752Z,102508.31
2023-05-18T23:15:49.080Z,102504.31
2023-05-18T23:18:16.834Z,102504.25
2023-05-18T23:20:45.146Z,102504.41
2023-05-18T23:23:13.071Z,102504.47
2023-05-18T23:25:40.853Z,102501.06
2023-05-18T23:28:08.692Z,102504.88
2023-05-18T23:30:36.497Z,102498.56
2023-05-18T23:33:06.720Z,102495.34
2023-05-18T23:35:36.264Z,102490.09
2023-05-18T23:38:06.292Z,102498.56
2023-05-18T23:40:35.580Z,102491.47
2023-05-18T23:43:03.772Z,102490.56
2023-05-18T23:45:32.233Z,102488.41
2023-05-18T23:48:00.776Z,102478.28
2023-05-18T23:50:31.153Z,102473.97
2023-05-18T23:53:04.264Z,102473.34
2023-05-18T23:55:35.980Z,102473.63
2023-05-18T23:58:04.773Z,102468.25
